sensor_id;sensor_type;location;lat;lon;timestamp;P1;durP1;ratioP1;P2;durP2;ratioP2
73684;SDS011;61985;51.070;14.064;2023-07-20T00:00:09;8.68;;;4.43;;
73684;SDS011;61985;51.070;14.064;2023-07-20T00:02:39;7.22;;;4.15;;
73684;SDS011;61985;51.070;14.064;2023-07-20T00:05:05;8.35;;;4.43;;
73684;SDS011;61985;51.070;14.064;2023-07-20T00:07:31;11.50;;;4.47;;
73684;SDS011;61985;51.070;14.064;2023-07-20T00:09:59;11.98;;;5.00;;
73684;SDS011;61985;51.070;14.064;2023-07-20T00:12:25;8.15;;;4.38;;
73684;SDS011;61985;51.070;14.064;2023-07-20T00:14:51;10.95;;;4.57;;
73684;SDS011;61985;51.070;14.064;2023-07-20T00:17:18;11.32;;;4.72;;
73684;SDS011;61985;51.070;14.064;2023-07-20T00:19:47;7.75;;;4.70;;
73684;SDS011;61985;51.070;14.064;2023-07-20T00:22:13;8.20;;;4.25;;
73684;SDS011;61985;51.070;14.064;2023-07-20T00:24:42;8.20;;;4.13;;
73684;SDS011;61985;51.070;14.064;2023-07-20T00:27:17;8.65;;;4.03;;
73684;SDS011;61985;51.070;14.064;2023-07-20T00:29:45;6.95;;;4.15;;
73684;SDS011;61985;51.070;14.064;2023-07-20T00:32:11;7.63;;;4.47;;
73684;SDS011;61985;51.070;14.064;2023-07-20T00:34:36;7.88;;;3.97;;
73684;SDS011;61985;51.070;14.064;2023-07-20T00:37:02;6.70;;;4.38;;
73684;SDS011;61985;51.070;14.064;2023-07-20T00:39:28;7.03;;;4.32;;
73684;SDS011;61985;51.070;14.064;2023-07-20T00:41:54;8.23;;;4.65;;
73684;SDS011;61985;51.070;14.064;2023-07-20T00:44:35;12.00;;;4.57;;
73684;SDS011;61985;51.070;14.064;2023-07-20T00:47:07;10.02;;;4.20;;
73684;SDS011;61985;51.070;14.064;2023-07-20T00:49:40;11.43;;;4.72;;
73684;SDS011;61985;51.070;14.064;2023-07-20T00:52:20;8.88;;;4.53;;
73684;SDS011;61985;51.070;14.064;2023-07-20T00:54:50;6.82;;;4.05;;
73684;SDS011;61985;51.070;14.064;2023-07-20T00:57:38;8.55;;;4.38;;
73684;SDS011;61985;51.070;14.064;2023-07-20T01:00:09;8.60;;;4.40;;
73684;SDS011;61985;51.070;14.064;2023-07-20T01:02:40;8.70;;;4.40;;
73684;SDS011;61985;51.070;14.064;2023-07-20T01:05:19;6.80;;;4.15;;
73684;SDS011;61985;51.070;14.064;2023-07-20T01:08:15;10.00;;;4.45;;
73684;SDS011;61985;51.070;14.064;2023-07-20T01:11:14;6.93;;;4.55;;
73684;SDS011;61985;51.070;14.064;2023-07-20T01:13:51;13.52;;;4.38;;
73684;SDS011;61985;51.070;14.064;2023-07-20T01:16:42;7.90;;;4.28;;
73684;SDS011;61985;51.070;14.064;2023-07-20T01:19:14;9.82;;;5.00;;
73684;SDS011;61985;51.070;14.064;2023-07-20T01:34:13;8.75;;;4.80;;
73684;SDS011;61985;51.070;14.064;2023-07-20T01:36:42;11.30;;;5.20;;
73684;SDS011;61985;51.070;14.064;2023-07-20T01:39:09;9.63;;;4.97;;
73684;SDS011;61985;51.070;14.064;2023-07-20T01:41:42;8.77;;;5.10;;
73684;SDS011;61985;51.070;14.064;2023-07-20T01:44:14;10.90;;;5.60;;
73684;SDS011;61985;51.070;14.064;2023-07-20T01:46:42;13.65;;;5.55;;
73684;SDS011;61985;51.070;14.064;2023-07-20T01:51:48;10.05;;;5.88;;
73684;SDS011;61985;51.070;14.064;2023-07-20T01:54:14;9.00;;;5.80;;
73684;SDS011;61985;51.070;14.064;2023-07-20T01:56:42;10.93;;;6.20;;
73684;SDS011;61985;51.070;14.064;2023-07-20T01:59:08;11.38;;;6.13;;
73684;SDS011;61985;51.070;14.064;2023-07-20T02:01:36;8.10;;;5.93;;
73684;SDS011;61985;51.070;14.064;2023-07-20T02:04:01;10.98;;;6.25;;
73684;SDS011;61985;51.070;14.064;2023-07-20T02:06:30;12.77;;;6.20;;
73684;SDS011;61985;51.070;14.064;2023-07-20T02:08:56;12.27;;;6.13;;
73684;SDS011;61985;51.070;14.064;2023-07-20T02:11:22;11.57;;;6.03;;
73684;SDS011;61985;51.070;14.064;2023-07-20T02:13:47;12.00;;;5.90;;
73684;SDS011;61985;51.070;14.064;2023-07-20T02:16:13;11.13;;;6.07;;
73684;SDS011;61985;51.070;14.064;2023-07-20T02:18:38;10.73;;;6.07;;
73684;SDS011;61985;51.070;14.064;2023-07-20T02:21:04;10.52;;;6.05;;
73684;SDS011;61985;51.070;14.064;2023-07-20T02:23:30;8.40;;;5.93;;
73684;SDS011;61985;51.070;14.064;2023-07-20T02:25:55;11.65;;;5.72;;
73684;SDS011;61985;51.070;14.064;2023-07-20T02:28:20;9.95;;;5.50;;
73684;SDS011;61985;51.070;14.064;2023-07-20T02:30:46;7.95;;;5.53;;
73684;SDS011;61985;51.070;14.064;2023-07-20T02:33:14;10.07;;;5.95;;
73684;SDS011;61985;51.070;14.064;2023-07-20T02:35:40;10.02;;;5.97;;
73684;SDS011;61985;51.070;14.064;2023-07-20T02:38:06;10.85;;;5.43;;
73684;SDS011;61985;51.070;14.064;2023-07-20T02:40:32;7.72;;;4.97;;
73684;SDS011;61985;51.070;14.064;2023-07-20T02:42:57;9.18;;;5.10;;
73684;SDS011;61985;51.070;14.064;2023-07-20T02:45:23;8.70;;;4.63;;
73684;SDS011;61985;51.070;14.064;2023-07-20T02:47:48;7.75;;;4.35;;
73684;SDS011;61985;51.070;14.064;2023-07-20T02:50:14;8.20;;;4.18;;
73684;SDS011;61985;51.070;14.064;2023-07-20T02:52:40;7.18;;;4.50;;
73684;SDS011;61985;51.070;14.064;2023-07-20T02:55:05;6.00;;;3.70;;
73684;SDS011;61985;51.070;14.064;2023-07-20T02:57:31;9.40;;;4.10;;
73684;SDS011;61985;51.070;14.064;2023-07-20T02:59:57;9.77;;;4.30;;
73684;SDS011;61985;51.070;14.064;2023-07-20T03:02:24;5.10;;;3.75;;
73684;SDS011;61985;51.070;14.064;2023-07-20T03:04:50;11.05;;;3.75;;
73684;SDS011;61985;51.070;14.064;2023-07-20T03:07:18;9.20;;;3.38;;
73684;SDS011;61985;51.070;14.064;2023-07-20T03:09:44;10.65;;;3.63;;
73684;SDS011;61985;51.070;14.064;2023-07-20T03:12:12;5.68;;;3.50;;
73684;SDS011;61985;51.070;14.064;2023-07-20T03:14:38;8.43;;;3.95;;
73684;SDS011;61985;51.070;14.064;2023-07-20T03:17:03;7.53;;;3.42;;
73684;SDS011;61985;51.070;14.064;2023-07-20T03:19:29;6.22;;;3.40;;
73684;SDS011;61985;51.070;14.064;2023-07-20T03:21:55;9.30;;;3.72;;
73684;SDS011;61985;51.070;14.064;2023-07-20T03:24:20;9.65;;;3.75;;
73684;SDS011;61985;51.070;14.064;2023-07-20T03:26:46;9.55;;;3.38;;
73684;SDS011;61985;51.070;14.064;2023-07-20T03:29:11;13.60;;;3.70;;
73684;SDS011;61985;51.070;14.064;2023-07-20T03:31:37;9.23;;;3.38;;
73684;SDS011;61985;51.070;14.064;2023-07-20T03:34:11;6.95;;;3.25;;
73684;SDS011;61985;51.070;14.064;2023-07-20T03:36:39;7.88;;;3.13;;
73684;SDS011;61985;51.070;14.064;2023-07-20T03:39:04;5.55;;;2.58;;
73684;SDS011;61985;51.070;14.064;2023-07-20T03:41:30;6.05;;;3.20;;
73684;SDS011;61985;51.070;14.064;2023-07-20T03:43:55;5.15;;;2.90;;
73684;SDS011;61985;51.070;14.064;2023-07-20T03:46:21;4.25;;;2.53;;
73684;SDS011;61985;51.070;14.064;2023-07-20T03:48:46;8.00;;;3.00;;
73684;SDS011;61985;51.070;14.064;2023-07-20T03:51:12;4.80;;;3.00;;
73684;SDS011;61985;51.070;14.064;2023-07-20T03:53:40;4.95;;;3.10;;
73684;SDS011;61985;51.070;14.064;2023-07-20T03:56:06;7.88;;;3.10;;
73684;SDS011;61985;51.070;14.064;2023-07-20T03:58:31;4.45;;;2.80;;
73684;SDS011;61985;51.070;14.064;2023-07-20T04:00:57;8.50;;;2.50;;
73684;SDS011;61985;51.070;14.064;2023-07-20T04:03:23;7.60;;;3.13;;
73684;SDS011;61985;51.070;14.064;2023-07-20T04:05:52;6.50;;;3.25;;
73684;SDS011;61985;51.070;14.064;2023-07-20T04:08:18;5.40;;;2.90;;
73684;SDS011;61985;51.070;14.064;2023-07-20T04:10:44;6.03;;;3.55;;
73684;SDS011;61985;51.070;14.064;2023-07-20T04:13:10;9.48;;;3.65;;
73684;SDS011;61985;51.070;14.064;2023-07-20T04:15:35;6.75;;;3.25;;
73684;SDS011;61985;51.070;14.064;2023-07-20T04:18:01;8.07;;;3.35;;
73684;SDS011;61985;51.070;14.064;2023-07-20T04:20:26;8.68;;;3.00;;
73684;SDS011;61985;51.070;14.064;2023-07-20T04:22:52;10.35;;;3.35;;
73684;SDS011;61985;51.070;14.064;2023-07-20T04:25:18;5.10;;;3.17;;
73684;SDS011;61985;51.070;14.064;2023-07-20T04:27:43;10.43;;;3.80;;
73684;SDS011;61985;51.070;14.064;2023-07-20T04:30:11;7.70;;;3.53;;
73684;SDS011;61985;51.070;14.064;2023-07-20T04:32:37;10.23;;;4.03;;
73684;SDS011;61985;51.070;14.064;2023-07-20T04:35:06;10.98;;;3.90;;
73684;SDS011;61985;51.070;14.064;2023-07-20T04:37:35;7.53;;;3.60;;
73684;SDS011;61985;51.070;14.064;2023-07-20T04:40:00;11.88;;;3.88;;
73684;SDS011;61985;51.070;14.064;2023-07-20T04:42:26;7.13;;;4.40;;
73684;SDS011;61985;51.070;14.064;2023-07-20T04:44:51;7.68;;;4.00;;
73684;SDS011;61985;51.070;14.064;2023-07-20T04:47:17;9.07;;;4.40;;
73684;SDS011;61985;51.070;14.064;2023-07-20T04:49:42;9.55;;;4.18;;
73684;SDS011;61985;51.070;14.064;2023-07-20T04:52:08;14.50;;;4.85;;
73684;SDS011;61985;51.070;14.064;2023-07-20T04:54:33;6.88;;;4.00;;
73684;SDS011;61985;51.070;14.064;2023-07-20T05:25:23;10.70;;;5.82;;
73684;SDS011;61985;51.070;14.064;2023-07-20T05:27:48;14.93;;;6.63;;
73684;SDS011;61985;51.070;14.064;2023-07-20T05:30:15;10.32;;;6.30;;
73684;SDS011;61985;51.070;14.064;2023-07-20T05:32:40;12.00;;;6.22;;
73684;SDS011;61985;51.070;14.064;2023-07-20T05:35:06;11.43;;;6.68;;
73684;SDS011;61985;51.070;14.064;2023-07-20T05:37:33;11.30;;;6.60;;
73684;SDS011;61985;51.070;14.064;2023-07-20T05:39:58;11.65;;;6.65;;
73684;SDS011;61985;51.070;14.064;2023-07-20T05:42:24;12.50;;;7.50;;
73684;SDS011;61985;51.070;14.064;2023-07-20T05:44:49;12.80;;;7.13;;
73684;SDS011;61985;51.070;14.064;2023-07-20T05:47:17;11.32;;;6.28;;
73684;SDS011;61985;51.070;14.064;2023-07-20T05:49:43;10.77;;;6.85;;
73684;SDS011;61985;51.070;14.064;2023-07-20T05:52:08;16.15;;;7.28;;
73684;SDS011;61985;51.070;14.064;2023-07-20T05:54:34;13.25;;;6.72;;
73684;SDS011;61985;51.070;14.064;2023-07-20T05:56:59;10.65;;;7.32;;
73684;SDS011;61985;51.070;14.064;2023-07-20T05:59:25;9.10;;;6.53;;
73684;SDS011;61985;51.070;14.064;2023-07-20T06:01:54;12.75;;;7.25;;
73684;SDS011;61985;51.070;14.064;2023-07-20T06:04:19;19.75;;;6.88;;
73684;SDS011;61985;51.070;14.064;2023-07-20T06:06:45;11.00;;;6.72;;
73684;SDS011;61985;51.070;14.064;2023-07-20T06:09:11;14.23;;;7.43;;
73684;SDS011;61985;51.070;14.064;2023-07-20T06:11:37;14.52;;;8.18;;
73684;SDS011;61985;51.070;14.064;2023-07-20T06:14:03;13.25;;;7.57;;
73684;SDS011;61985;51.070;14.064;2023-07-20T06:16:29;19.05;;;8.48;;
73684;SDS011;61985;51.070;14.064;2023-07-20T06:18:55;9.77;;;7.65;;
73684;SDS011;61985;51.070;14.064;2023-07-20T06:21:20;11.60;;;7.45;;
73684;SDS011;61985;51.070;14.064;2023-07-20T06:23:46;12.52;;;8.10;;
73684;SDS011;61985;51.070;14.064;2023-07-20T06:26:11;13.00;;;8.00;;
73684;SDS011;61985;51.070;14.064;2023-07-20T06:28:36;10.38;;;7.13;;
73684;SDS011;61985;51.070;14.064;2023-07-20T06:31:02;11.35;;;6.97;;
73684;SDS011;61985;51.070;14.064;2023-07-20T06:33:28;11.13;;;7.55;;
73684;SDS011;61985;51.070;14.064;2023-07-20T06:35:53;13.35;;;7.55;;
73684;SDS011;61985;51.070;14.064;2023-07-20T06:38:19;12.40;;;7.05;;
73684;SDS011;61985;51.070;14.064;2023-07-20T06:40:48;14.38;;;7.05;;
73684;SDS011;61985;51.070;14.064;2023-07-20T06:43:14;10.73;;;6.28;;
73684;SDS011;61985;51.070;14.064;2023-07-20T06:45:39;9.40;;;6.10;;
73684;SDS011;61985;51.070;14.064;2023-07-20T06:48:05;9.52;;;5.47;;
73684;SDS011;61985;51.070;14.064;2023-07-20T06:50:31;8.90;;;4.95;;
73684;SDS011;61985;51.070;14.064;2023-07-20T06:52:56;8.82;;;4.70;;
73684;SDS011;61985;51.070;14.064;2023-07-20T06:55:22;10.70;;;5.00;;
73684;SDS011;61985;51.070;14.064;2023-07-20T06:57:47;9.50;;;5.55;;
73684;SDS011;61985;51.070;14.064;2023-07-20T07:00:13;7.43;;;6.25;;
73684;SDS011;61985;51.070;14.064;2023-07-20T07:02:38;14.13;;;6.82;;
73684;SDS011;61985;51.070;14.064;2023-07-20T07:05:04;12.45;;;6.45;;
73684;SDS011;61985;51.070;14.064;2023-07-20T07:07:30;8.73;;;5.65;;
73684;SDS011;61985;51.070;14.064;2023-07-20T07:09:55;8.98;;;5.13;;
73684;SDS011;61985;51.070;14.064;2023-07-20T07:12:21;6.72;;;4.15;;
73684;SDS011;61985;51.070;14.064;2023-07-20T07:14:46;7.15;;;3.85;;
73684;SDS011;61985;51.070;14.064;2023-07-20T07:17:12;5.88;;;3.40;;
73684;SDS011;61985;51.070;14.064;2023-07-20T07:19:37;5.18;;;3.78;;
73684;SDS011;61985;51.070;14.064;2023-07-20T07:22:03;6.93;;;3.60;;
73684;SDS011;61985;51.070;14.064;2023-07-20T07:24:29;5.32;;;2.85;;
73684;SDS011;61985;51.070;14.064;2023-07-20T07:26:58;4.22;;;3.00;;
73684;SDS011;61985;51.070;14.064;2023-07-20T07:29:26;7.72;;;3.17;;
73684;SDS011;61985;51.070;14.064;2023-07-20T07:31:52;13.90;;;6.65;;
73684;SDS011;61985;51.070;14.064;2023-07-20T07:34:17;14.40;;;9.10;;
73684;SDS011;61985;51.070;14.064;2023-07-20T07:36:43;17.98;;;10.85;;
73684;SDS011;61985;51.070;14.064;2023-07-20T07:39:08;27.98;;;17.00;;
73684;SDS011;61985;51.070;14.064;2023-07-20T07:41:34;23.48;;;15.77;;
73684;SDS011;61985;51.070;14.064;2023-07-20T07:44:02;18.33;;;10.05;;
73684;SDS011;61985;51.070;14.064;2023-07-20T07:46:28;8.27;;;4.80;;
73684;SDS011;61985;51.070;14.064;2023-07-20T07:48:53;8.65;;;4.55;;
73684;SDS011;61985;51.070;14.064;2023-07-20T07:51:19;7.28;;;3.65;;
73684;SDS011;61985;51.070;14.064;2023-07-20T07:53:45;6.93;;;3.50;;
73684;SDS011;61985;51.070;14.064;2023-07-20T07:56:11;6.05;;;3.55;;
73684;SDS011;61985;51.070;14.064;2023-07-20T07:58:36;6.07;;;3.92;;
73684;SDS011;61985;51.070;14.064;2023-07-20T08:01:02;6.90;;;4.28;;
73684;SDS011;61985;51.070;14.064;2023-07-20T08:03:28;8.32;;;3.42;;
73684;SDS011;61985;51.070;14.064;2023-07-20T08:05:56;7.10;;;3.45;;
73684;SDS011;61985;51.070;14.064;2023-07-20T08:08:22;5.63;;;3.45;;
73684;SDS011;61985;51.070;14.064;2023-07-20T08:10:48;6.45;;;3.83;;
73684;SDS011;61985;51.070;14.064;2023-07-20T08:13:13;8.63;;;3.60;;
73684;SDS011;61985;51.070;14.064;2023-07-20T08:15:39;6.20;;;3.90;;
73684;SDS011;61985;51.070;14.064;2023-07-20T08:18:05;8.00;;;3.60;;
73684;SDS011;61985;51.070;14.064;2023-07-20T08:20:31;6.95;;;4.45;;
73684;SDS011;61985;51.070;14.064;2023-07-20T08:22:57;6.72;;;4.00;;
73684;SDS011;61985;51.070;14.064;2023-07-20T08:25:24;6.93;;;4.00;;
73684;SDS011;61985;51.070;14.064;2023-07-20T08:27:50;11.02;;;4.50;;
73684;SDS011;61985;51.070;14.064;2023-07-20T08:30:15;9.80;;;4.93;;
73684;SDS011;61985;51.070;14.064;2023-07-20T08:32:41;8.48;;;4.60;;
73684;SDS011;61985;51.070;14.064;2023-07-20T08:35:06;8.23;;;4.38;;
73684;SDS011;61985;51.070;14.064;2023-07-20T08:37:32;7.25;;;4.43;;
73684;SDS011;61985;51.070;14.064;2023-07-20T08:39:57;7.57;;;4.65;;
73684;SDS011;61985;51.070;14.064;2023-07-20T08:42:22;12.57;;;6.82;;
73684;SDS011;61985;51.070;14.064;2023-07-20T08:44:48;7.70;;;3.97;;
73684;SDS011;61985;51.070;14.064;2023-07-20T08:47:16;8.02;;;4.10;;
73684;SDS011;61985;51.070;14.064;2023-07-20T08:49:43;15.13;;;4.40;;
73684;SDS011;61985;51.070;14.064;2023-07-20T08:52:09;5.80;;;4.30;;
73684;SDS011;61985;51.070;14.064;2023-07-20T08:54:35;6.65;;;4.20;;
73684;SDS011;61985;51.070;14.064;2023-07-20T08:57:04;8.30;;;4.30;;
73684;SDS011;61985;51.070;14.064;2023-07-20T08:59:31;7.20;;;3.88;;
73684;SDS011;61985;51.070;14.064;2023-07-20T09:01:58;7.15;;;4.03;;
73684;SDS011;61985;51.070;14.064;2023-07-20T09:04:23;7.53;;;4.28;;
73684;SDS011;61985;51.070;14.064;2023-07-20T09:06:49;6.70;;;4.53;;
73684;SDS011;61985;51.070;14.064;2023-07-20T09:09:15;5.80;;;3.85;;
73684;SDS011;61985;51.070;14.064;2023-07-20T09:11:40;6.75;;;4.35;;
73684;SDS011;61985;51.070;14.064;2023-07-20T09:14:06;5.93;;;3.55;;
73684;SDS011;61985;51.070;14.064;2023-07-20T09:16:32;7.70;;;4.20;;
73684;SDS011;61985;51.070;14.064;2023-07-20T09:19:11;6.10;;;3.92;;
73684;SDS011;61985;51.070;14.064;2023-07-20T09:21:37;7.30;;;4.45;;
73684;SDS011;61985;51.070;14.064;2023-07-20T09:24:03;5.65;;;3.80;;
73684;SDS011;61985;51.070;14.064;2023-07-20T09:26:28;7.25;;;4.95;;
73684;SDS011;61985;51.070;14.064;2023-07-20T09:28:53;8.30;;;4.18;;
73684;SDS011;61985;51.070;14.064;2023-07-20T09:31:22;6.97;;;5.00;;
73684;SDS011;61985;51.070;14.064;2023-07-20T09:33:48;6.35;;;4.43;;
73684;SDS011;61985;51.070;14.064;2023-07-20T09:36:16;7.30;;;3.88;;
73684;SDS011;61985;51.070;14.064;2023-07-20T09:38:42;6.18;;;4.13;;
73684;SDS011;61985;51.070;14.064;2023-07-20T09:41:08;6.18;;;3.97;;
73684;SDS011;61985;51.070;14.064;2023-07-20T09:43:40;6.55;;;4.10;;
73684;SDS011;61985;51.070;14.064;2023-07-20T09:46:06;7.18;;;4.50;;
73684;SDS011;61985;51.070;14.064;2023-07-20T09:48:32;5.35;;;4.05;;
73684;SDS011;61985;51.070;14.064;2023-07-20T09:50:57;7.45;;;4.25;;
73684;SDS011;61985;51.070;14.064;2023-07-20T09:53:24;6.47;;;3.90;;
73684;SDS011;61985;51.070;14.064;2023-07-20T09:55:50;6.15;;;3.67;;
73684;SDS011;61985;51.070;14.064;2023-07-20T09:58:17;5.75;;;3.90;;
73684;SDS011;61985;51.070;14.064;2023-07-20T10:00:44;4.93;;;3.70;;
73684;SDS011;61985;51.070;14.064;2023-07-20T10:03:13;5.72;;;3.78;;
73684;SDS011;61985;51.070;14.064;2023-07-20T10:05:43;7.40;;;3.78;;
73684;SDS011;61985;51.070;14.064;2023-07-20T10:08:12;5.45;;;4.00;;
73684;SDS011;61985;51.070;14.064;2023-07-20T10:10:38;6.18;;;4.40;;
73684;SDS011;61985;51.070;14.064;2023-07-20T10:13:08;5.88;;;4.30;;
73684;SDS011;61985;51.070;14.064;2023-07-20T10:15:43;6.88;;;4.03;;
73684;SDS011;61985;51.070;14.064;2023-07-20T10:18:14;7.22;;;4.88;;
73684;SDS011;61985;51.070;14.064;2023-07-20T10:20:48;6.88;;;4.15;;
73684;SDS011;61985;51.070;14.064;2023-07-20T10:23:16;6.22;;;3.70;;
73684;SDS011;61985;51.070;14.064;2023-07-20T10:25:42;6.82;;;3.50;;
73684;SDS011;61985;51.070;14.064;2023-07-20T10:28:09;5.20;;;3.60;;
73684;SDS011;61985;51.070;14.064;2023-07-20T10:30:36;6.60;;;3.03;;
73684;SDS011;61985;51.070;14.064;2023-07-20T10:33:02;8.60;;;4.53;;
73684;SDS011;61985;51.070;14.064;2023-07-20T10:35:29;8.85;;;2.85;;
73684;SDS011;61985;51.070;14.064;2023-07-20T10:37:59;9.60;;;2.92;;
73684;SDS011;61985;51.070;14.064;2023-07-20T10:40:30;6.80;;;2.50;;
73684;SDS011;61985;51.070;14.064;2023-07-20T10:43:07;3.22;;;2.20;;
73684;SDS011;61985;51.070;14.064;2023-07-20T10:45:35;5.10;;;3.17;;
73684;SDS011;61985;51.070;14.064;2023-07-20T10:48:09;6.47;;;3.15;;
73684;SDS011;61985;51.070;14.064;2023-07-20T10:50:40;5.90;;;2.65;;
73684;SDS011;61985;51.070;14.064;2023-07-20T10:53:13;5.93;;;3.00;;
73684;SDS011;61985;51.070;14.064;2023-07-20T10:55:40;4.60;;;2.53;;
73684;SDS011;61985;51.070;14.064;2023-07-20T10:58:11;3.92;;;2.35;;
73684;SDS011;61985;51.070;14.064;2023-07-20T11:03:27;3.38;;;2.15;;
73684;SDS011;61985;51.070;14.064;2023-07-20T11:05:57;4.22;;;2.42;;
73684;SDS011;61985;51.070;14.064;2023-07-20T11:08:42;4.55;;;2.33;;
73684;SDS011;61985;51.070;14.064;2023-07-20T11:11:25;3.63;;;2.10;;
73684;SDS011;61985;51.070;14.064;2023-07-20T11:19:05;3.70;;;2.38;;
73684;SDS011;61985;51.070;14.064;2023-07-20T11:21:35;3.72;;;2.33;;
73684;SDS011;61985;51.070;14.064;2023-07-20T11:24:03;3.33;;;2.40;;
73684;SDS011;61985;51.070;14.064;2023-07-20T11:26:30;4.13;;;2.40;;
73684;SDS011;61985;51.070;14.064;2023-07-20T11:28:55;5.78;;;2.50;;
73684;SDS011;61985;51.070;14.064;2023-07-20T11:31:21;4.05;;;2.53;;
73684;SDS011;61985;51.070;14.064;2023-07-20T11:33:46;5.35;;;2.60;;
73684;SDS011;61985;51.070;14.064;2023-07-20T11:36:12;3.72;;;2.40;;
73684;SDS011;61985;51.070;14.064;2023-07-20T11:38:39;3.05;;;2.20;;
73684;SDS011;61985;51.070;14.064;2023-07-20T11:41:07;3.65;;;2.10;;
73684;SDS011;61985;51.070;14.064;2023-07-20T11:43:33;2.95;;;2.20;;
73684;SDS011;61985;51.070;14.064;2023-07-20T11:45:59;2.60;;;2.17;;
73684;SDS011;61985;51.070;14.064;2023-07-20T11:48:25;3.45;;;1.90;;
73684;SDS011;61985;51.070;14.064;2023-07-20T11:50:50;3.17;;;2.20;;
73684;SDS011;61985;51.070;14.064;2023-07-20T11:53:24;4.57;;;2.40;;
73684;SDS011;61985;51.070;14.064;2023-07-20T11:55:50;3.13;;;2.38;;
73684;SDS011;61985;51.070;14.064;2023-07-20T11:58:16;2.75;;;2.08;;
73684;SDS011;61985;51.070;14.064;2023-07-20T12:00:43;2.70;;;2.30;;
73684;SDS011;61985;51.070;14.064;2023-07-20T12:03:09;4.03;;;2.38;;
73684;SDS011;61985;51.070;14.064;2023-07-20T12:05:36;3.28;;;2.10;;
73684;SDS011;61985;51.070;14.064;2023-07-20T12:08:02;2.97;;;2.38;;
73684;SDS011;61985;51.070;14.064;2023-07-20T12:10:28;2.35;;;2.15;;
73684;SDS011;61985;51.070;14.064;2023-07-20T12:12:54;2.83;;;1.88;;
73684;SDS011;61985;51.070;14.064;2023-07-20T12:15:24;2.38;;;1.80;;
73684;SDS011;61985;51.070;14.064;2023-07-20T12:18:00;2.97;;;1.67;;
73684;SDS011;61985;51.070;14.064;2023-07-20T12:20:30;2.28;;;1.90;;
73684;SDS011;61985;51.070;14.064;2023-07-20T12:23:10;2.42;;;1.52;;
73684;SDS011;61985;51.070;14.064;2023-07-20T12:25:37;3.17;;;1.70;;
73684;SDS011;61985;51.070;14.064;2023-07-20T12:28:07;2.65;;;1.70;;
73684;SDS011;61985;51.070;14.064;2023-07-20T12:30:34;2.33;;;1.80;;
73684;SDS011;61985;51.070;14.064;2023-07-20T12:32:59;3.20;;;2.00;;
73684;SDS011;61985;51.070;14.064;2023-07-20T12:35:24;2.75;;;1.70;;
73684;SDS011;61985;51.070;14.064;2023-07-20T12:37:50;2.70;;;1.90;;
73684;SDS011;61985;51.070;14.064;2023-07-20T12:40:16;2.15;;;1.70;;
73684;SDS011;61985;51.070;14.064;2023-07-20T12:42:42;3.63;;;1.98;;
73684;SDS011;61985;51.070;14.064;2023-07-20T12:45:08;2.55;;;2.00;;
73684;SDS011;61985;51.070;14.064;2023-07-20T12:47:33;2.58;;;1.80;;
73684;SDS011;61985;51.070;14.064;2023-07-20T12:49:59;2.05;;;1.80;;
73684;SDS011;61985;51.070;14.064;2023-07-20T12:52:25;3.08;;;2.10;;
73684;SDS011;61985;51.070;14.064;2023-07-20T12:55:08;3.72;;;2.40;;
73684;SDS011;61985;51.070;14.064;2023-07-20T12:57:35;3.13;;;2.35;;
73684;SDS011;61985;51.070;14.064;2023-07-20T13:00:02;3.55;;;2.70;;
73684;SDS011;61985;51.070;14.064;2023-07-20T13:02:30;5.03;;;3.00;;
73684;SDS011;61985;51.070;14.064;2023-07-20T13:04:59;5.45;;;2.83;;
73684;SDS011;61985;51.070;14.064;2023-07-20T13:07:32;5.18;;;2.80;;
73684;SDS011;61985;51.070;14.064;2023-07-20T13:09:59;3.25;;;2.33;;
73684;SDS011;61985;51.070;14.064;2023-07-20T13:12:26;4.65;;;2.60;;
73684;SDS011;61985;51.070;14.064;2023-07-20T13:14:52;4.50;;;2.78;;
73684;SDS011;61985;51.070;14.064;2023-07-20T13:17:17;6.05;;;3.63;;
73684;SDS011;61985;51.070;14.064;2023-07-20T13:19:43;6.15;;;3.83;;
73684;SDS011;61985;51.070;14.064;2023-07-20T13:22:08;5.90;;;4.00;;
73684;SDS011;61985;51.070;14.064;2023-07-20T13:24:33;4.22;;;3.00;;
73684;SDS011;61985;51.070;14.064;2023-07-20T13:26:59;4.03;;;2.33;;
73684;SDS011;61985;51.070;14.064;2023-07-20T13:29:24;3.35;;;2.20;;
73684;SDS011;61985;51.070;14.064;2023-07-20T13:31:50;2.85;;;2.30;;
73684;SDS011;61985;51.070;14.064;2023-07-20T13:34:15;4.35;;;2.80;;
73684;SDS011;61985;51.070;14.064;2023-07-20T13:36:41;4.85;;;3.08;;
73684;SDS011;61985;51.070;14.064;2023-07-20T13:39:06;6.72;;;3.40;;
73684;SDS011;61985;51.070;14.064;2023-07-20T13:41:32;4.80;;;3.00;;
73684;SDS011;61985;51.070;14.064;2023-07-20T13:43:58;4.82;;;3.25;;
73684;SDS011;61985;51.070;14.064;2023-07-20T13:46:23;6.40;;;2.92;;
73684;SDS011;61985;51.070;14.064;2023-07-20T13:48:49;5.13;;;2.80;;
73684;SDS011;61985;51.070;14.064;2023-07-20T13:51:14;3.38;;;2.20;;
73684;SDS011;61985;51.070;14.064;2023-07-20T13:53:39;2.80;;;2.10;;
73684;SDS011;61985;51.070;14.064;2023-07-20T13:56:05;4.82;;;2.20;;
73684;SDS011;61985;51.070;14.064;2023-07-20T13:58:32;3.58;;;2.30;;
73684;SDS011;61985;51.070;14.064;2023-07-20T14:00:57;3.20;;;2.40;;
73684;SDS011;61985;51.070;14.064;2023-07-20T14:03:23;3.15;;;2.08;;
73684;SDS011;61985;51.070;14.064;2023-07-20T14:05:49;3.15;;;2.28;;
73684;SDS011;61985;51.070;14.064;2023-07-20T14:08:15;3.15;;;2.50;;
73684;SDS011;61985;51.070;14.064;2023-07-20T14:10:40;3.65;;;2.30;;
73684;SDS011;61985;51.070;14.064;2023-07-20T14:13:06;3.72;;;2.47;;
73684;SDS011;61985;51.070;14.064;2023-07-20T14:15:31;2.45;;;2.22;;
73684;SDS011;61985;51.070;14.064;2023-07-20T14:17:57;4.20;;;2.40;;
73684;SDS011;61985;51.070;14.064;2023-07-20T14:20:23;2.88;;;2.20;;
73684;SDS011;61985;51.070;14.064;2023-07-20T14:22:48;4.65;;;2.10;;
73684;SDS011;61985;51.070;14.064;2023-07-20T14:25:21;2.63;;;2.10;;
73684;SDS011;61985;51.070;14.064;2023-07-20T14:27:46;3.53;;;2.30;;
73684;SDS011;61985;51.070;14.064;2023-07-20T14:30:12;4.93;;;2.63;;
73684;SDS011;61985;51.070;14.064;2023-07-20T14:32:41;2.83;;;2.20;;
73684;SDS011;61985;51.070;14.064;2023-07-20T14:35:06;2.53;;;2.00;;
73684;SDS011;61985;51.070;14.064;2023-07-20T14:37:32;2.75;;;1.90;;
73684;SDS011;61985;51.070;14.064;2023-07-20T14:39:58;6.20;;;2.13;;
73684;SDS011;61985;51.070;14.064;2023-07-20T14:42:23;2.97;;;2.08;;
73684;SDS011;61985;51.070;14.064;2023-07-20T14:44:49;2.47;;;2.00;;
73684;SDS011;61985;51.070;14.064;2023-07-20T14:47:14;3.22;;;2.30;;
73684;SDS011;61985;51.070;14.064;2023-07-20T14:49:39;4.93;;;2.10;;
73684;SDS011;61985;51.070;14.064;2023-07-20T14:52:05;2.40;;;2.00;;
73684;SDS011;61985;51.070;14.064;2023-07-20T14:54:31;7.00;;;2.30;;
73684;SDS011;61985;51.070;14.064;2023-07-20T14:56:56;3.30;;;2.10;;
73684;SDS011;61985;51.070;14.064;2023-07-20T14:59:22;3.95;;;2.42;;
73684;SDS011;61985;51.070;14.064;2023-07-20T15:01:49;2.90;;;1.83;;
73684;SDS011;61985;51.070;14.064;2023-07-20T15:04:16;3.00;;;2.28;;
73684;SDS011;61985;51.070;14.064;2023-07-20T15:06:41;3.63;;;1.98;;
73684;SDS011;61985;51.070;14.064;2023-07-20T15:09:07;3.72;;;2.20;;
73684;SDS011;61985;51.070;14.064;2023-07-20T15:11:34;4.05;;;1.80;;
73684;SDS011;61985;51.070;14.064;2023-07-20T15:14:07;1.92;;;1.70;;
73684;SDS011;61985;51.070;14.064;2023-07-20T15:16:32;3.40;;;1.90;;
73684;SDS011;61985;51.070;14.064;2023-07-20T15:18:58;3.10;;;1.75;;
73684;SDS011;61985;51.070;14.064;2023-07-20T15:21:23;2.55;;;2.00;;